Time;durP1;ratioP1;P1;durP2;ratioP2;P2;SDS_P1;SDS_P2;PMS_P1;PMS_P2;Temp;Humidity;BMP_temperature;BMP_pressure;BME280_temperature;BME280_humidity;BME280_pressure;Samples;Min_cycle;Max_cycle;Signal;HPM_P1;HPM_P2
2023/05/04 00:02:02;;;;;;;3.47;2.75;;;;;;;;;;5054613;28;20033;-58
2023/05/04 00:04:28;;;;;;;3.38;2.78;;;;;;;;;;5054683;28;20378;-58
2023/05/04 00:06:54;;;;;;;4.10;3.63;;;;;;;;;;5054824;28;20024;-58
2023/05/04 00:09:20;;;;;;;4.30;3.00;;;;;;;;;;5054707;28;20025;-58
2023/05/04 00:11:46;;;;;;;4.10;3.40;;;;;;;;;;5054708;28;20055;-58
2023/05/04 00:14:12;;;;;;;4.45;3.53;;;;;;;;;;5054946;28;20448;-58
2023/05/04 00:16:38;;;;;;;3.70;3.25;;;;;;;;;;5054407;28;20199;-58
2023/05/04 00:19:04;;;;;;;4.72;3.92;;;;;;;;;;5054406;28;20033;-58
2023/05/04 00:21:30;;;;;;;4.78;3.72;;;;;;;;;;5054332;28;20374;-58
2023/05/04 00:23:56;;;;;;;5.22;3.75;;;;;;;;;;5054542;28;20416;-58
2023/05/04 00:26:21;;;;;;;4.38;3.53;;;;;;;;;;5054252;28;20463;-58
2023/05/04 00:28:47;;;;;;;6.57;4.07;;;;;;;;;;5054083;28;20040;-58
2023/05/04 00:31:14;;;;;;;4.28;3.40;;;;;;;;;;5054056;28;20086;-58
2023/05/04 00:33:40;;;;;;;7.50;3.97;;;;;;;;;;5054063;28;20108;-58
2023/05/04 00:36:06;;;;;;;5.57;3.45;;;;;;;;;;5054496;28;20451;-58
2023/05/04 00:38:35;;;;;;;5.05;4.05;;;;;;;;;;5054008;28;20048;-58
2023/05/04 00:41:01;;;;;;;4.65;3.80;;;;;;;;;;5053869;28;20040;-58
2023/05/04 00:43:27;;;;;;;5.18;3.72;;;;;;;;;;5053911;28;20025;-58
2023/05/04 00:45:53;;;;;;;4.97;3.42;;;;;;;;;;5054193;28;20107;-58
2023/05/04 00:48:19;;;;;;;6.15;4.57;;;;;;;;;;5053973;28;20025;-58
2023/05/04 00:50:45;;;;;;;5.35;4.55;;;;;;;;;;5053354;28;20045;-57
2023/05/04 00:53:11;;;;;;;5.88;4.35;;;;;;;;;;5054041;28;20025;-58
2023/05/04 00:55:39;;;;;;;6.45;4.25;;;;;;;;;;5054030;28;20029;-58
2023/05/04 00:58:06;;;;;;;6.40;5.13;;;;;;;;;;5054089;28;20434;-58
2023/05/04 01:00:32;;;;;;;10.48;5.88;;;;;;;;;;5053978;28;20068;-57
2023/05/04 01:02:58;;;;;;;5.88;5.13;;;;;;;;;;5053530;28;20047;-58
2023/05/04 01:05:26;;;;;;;5.85;4.95;;;;;;;;;;5053530;28;20037;-58
2023/05/04 01:07:58;;;;;;;6.95;5.35;;;;;;;;;;5053705;28;20024;-58
2023/05/04 01:10:30;;;;;;;6.68;4.93;;;;;;;;;;5053785;28;20068;-58
2023/05/04 01:12:57;;;;;;;5.50;4.65;;;;;;;;;;5053444;28;20429;-58
2023/05/04 01:15:23;;;;;;;6.07;5.15;;;;;;;;;;5052964;28;20053;-58
2023/05/04 01:17:49;;;;;;;5.30;4.75;;;;;;;;;;5053442;28;20063;-58
2023/05/04 01:20:15;;;;;;;5.75;4.97;;;;;;;;;;5053289;28;20052;-58
2023/05/04 01:22:41;;;;;;;6.35;5.55;;;;;;;;;;5053794;28;20029;-58
2023/05/04 01:25:07;;;;;;;8.48;5.55;;;;;;;;;;5053625;28;20033;-58
2023/05/04 01:27:45;;;;;;;5.85;4.75;;;;;;;;;;5053444;28;20078;-58
2023/05/04 01:30:18;;;;;;;6.50;5.60;;;;;;;;;;5053735;28;20041;-58
2023/05/04 01:32:44;;;;;;;6.55;5.90;;;;;;;;;;5053344;28;20395;-58
2023/05/04 01:35:12;;;;;;;7.90;5.70;;;;;;;;;;5053494;28;20025;-58
2023/05/04 01:37:38;;;;;;;7.68;6.25;;;;;;;;;;5053930;28;20086;-58
2023/05/04 01:40:04;;;;;;;6.50;5.85;;;;;;;;;;5053162;28;20537;-58
2023/05/04 01:42:39;;;;;;;8.65;6.65;;;;;;;;;;5053128;28;20344;-58
2023/05/04 01:45:06;;;;;;;6.22;5.63;;;;;;;;;;5053014;28;20033;-58
2023/05/04 01:47:32;;;;;;;7.00;5.80;;;;;;;;;;5053709;28;20075;-58
2023/05/04 01:49:58;;;;;;;7.38;6.63;;;;;;;;;;5052604;28;20064;-59
2023/05/04 01:52:24;;;;;;;9.20;7.07;;;;;;;;;;5053103;28;20021;-58
2023/05/04 01:54:50;;;;;;;8.18;6.78;;;;;;;;;;5053293;28;20025;-58
2023/05/04 01:57:16;;;;;;;9.23;6.82;;;;;;;;;;5053492;28;20032;-58
2023/05/04 01:59:42;;;;;;;7.05;6.32;;;;;;;;;;5053212;28;20439;-58
2023/05/04 02:02:08;;;;;;;9.05;6.78;;;;;;;;;;5053680;28;20026;-58
2023/05/04 02:04:34;;;;;;;7.63;6.65;;;;;;;;;;5056872;28;20104;-58
2023/05/04 02:07:00;;;;;;;7.57;6.25;;;;;;;;;;5057173;28;20048;-58
2023/05/04 02:09:26;;;;;;;7.10;6.40;;;;;;;;;;5056832;28;20033;-58
2023/05/04 02:11:52;;;;;;;8.27;7.07;;;;;;;;;;5056659;28;20036;-58
2023/05/04 02:14:18;;;;;;;7.90;7.13;;;;;;;;;;5057040;28;20053;-58
2023/05/04 02:16:44;;;;;;;6.72;6.00;;;;;;;;;;5056708;28;20123;-58
2023/05/04 02:19:10;;;;;;;7.25;6.50;;;;;;;;;;5057323;28;20033;-58
2023/05/04 02:21:36;;;;;;;8.73;6.95;;;;;;;;;;5056537;28;20461;-58
2023/05/04 02:24:05;;;;;;;8.25;7.10;;;;;;;;;;5057258;28;20064;-58
2023/05/04 02:26:30;;;;;;;6.97;6.28;;;;;;;;;;5056478;28;20485;-58
2023/05/04 02:28:56;;;;;;;7.72;6.93;;;;;;;;;;5056340;28;20064;-58
2023/05/04 02:31:22;;;;;;;9.77;7.40;;;;;;;;;;5056659;28;20057;-58
2023/05/04 02:33:49;;;;;;;7.60;6.68;;;;;;;;;;5056360;28;20032;-58
2023/05/04 02:36:15;;;;;;;8.13;6.97;;;;;;;;;;5056814;28;20052;-58
2023/05/04 02:38:41;;;;;;;7.60;6.82;;;;;;;;;;5056519;28;20029;-58
2023/05/04 02:41:07;;;;;;;8.60;6.82;;;;;;;;;;5055898;28;20029;-58
2023/05/04 02:43:33;;;;;;;8.40;6.35;;;;;;;;;;5056410;28;20040;-58
2023/05/04 02:45:59;;;;;;;7.28;6.30;;;;;;;;;;5056412;28;20029;-58
2023/05/04 02:48:25;;;;;;;8.35;6.75;;;;;;;;;;5056712;28;20517;-58
2023/05/04 02:50:51;;;;;;;10.80;7.18;;;;;;;;;;5055961;28;20524;-58
2023/05/04 02:53:17;;;;;;;7.43;6.72;;;;;;;;;;5056249;28;20025;-58
2023/05/04 02:55:43;;;;;;;7.72;6.93;;;;;;;;;;5056507;28;20033;-58
2023/05/04 02:58:09;;;;;;;9.65;6.43;;;;;;;;;;5055813;28;20039;-58
2023/05/04 03:00:35;;;;;;;8.50;7.70;;;;;;;;;;5056258;28;20033;-58
2023/05/04 03:03:01;;;;;;;7.72;6.80;;;;;;;;;;5056478;28;20048;-58
2023/05/04 03:05:27;;;;;;;7.88;7.07;;;;;;;;;;5056229;28;20021;-58
2023/05/04 03:07:53;;;;;;;7.40;6.32;;;;;;;;;;5056152;28;20173;-58
2023/05/04 03:10:19;;;;;;;7.72;6.90;;;;;;;;;;5055323;28;20090;-58
2023/05/04 03:12:45;;;;;;;7.65;6.65;;;;;;;;;;5056008;28;20025;-58
2023/05/04 03:15:11;;;;;;;8.32;7.43;;;;;;;;;;5054956;28;20045;-58
2023/05/04 03:17:37;;;;;;;10.73;7.00;;;;;;;;;;5055493;28;20024;-58
2023/05/04 03:20:03;;;;;;;9.63;7.13;;;;;;;;;;5055462;28;20201;-58
2023/05/04 03:22:29;;;;;;;8.70;6.70;;;;;;;;;;5055499;28;20021;-58
2023/05/04 03:24:55;;;;;;;7.22;6.15;;;;;;;;;;5055810;28;20032;-58
2023/05/04 03:27:21;;;;;;;7.10;6.40;;;;;;;;;;5055645;28;20021;-58
2023/05/04 03:29:47;;;;;;;6.45;5.82;;;;;;;;;;5055726;28;20025;-58
2023/05/04 03:32:13;;;;;;;9.20;7.70;;;;;;;;;;5055677;28;20474;-58
2023/05/04 03:34:39;;;;;;;8.77;6.60;;;;;;;;;;5055389;28;20071;-58
2023/05/04 03:37:05;;;;;;;8.30;7.10;;;;;;;;;;5055514;28;20359;-58
2023/05/04 03:39:31;;;;;;;7.10;6.40;;;;;;;;;;5055701;28;20454;-58
2023/05/04 03:41:57;;;;;;;8.35;6.65;;;;;;;;;;5055096;28;20033;-58
2023/05/04 03:44:23;;;;;;;7.93;7.13;;;;;;;;;;5055297;28;20025;-58
2023/05/04 03:46:49;;;;;;;8.68;7.20;;;;;;;;;;5055267;28;20395;-58
2023/05/04 03:49:14;;;;;;;8.00;7.05;;;;;;;;;;5055134;28;20455;-58
2023/05/04 03:51:41;;;;;;;7.43;6.60;;;;;;;;;;5054830;28;20029;-58
2023/05/04 03:54:07;;;;;;;8.65;7.10;;;;;;;;;;5054883;28;20034;-58
2023/05/04 03:56:33;;;;;;;8.45;6.65;;;;;;;;;;5055169;28;20124;-58
2023/05/04 03:58:59;;;;;;;7.70;6.88;;;;;;;;;;5054716;28;20017;-58
2023/05/04 04:01:25;;;;;;;7.35;6.57;;;;;;;;;;5054661;28;20036;-58
2023/05/04 04:03:51;;;;;;;8.80;7.68;;;;;;;;;;5054520;28;20039;-58
2023/05/04 04:06:17;;;;;;;8.85;7.22;;;;;;;;;;5054977;28;20096;-58
2023/05/04 04:08:43;;;;;;;8.85;7.30;;;;;;;;;;5054571;28;20034;-57
2023/05/04 04:11:09;;;;;;;7.55;6.85;;;;;;;;;;5054492;28;20033;-58
2023/05/04 04:13:35;;;;;;;7.75;6.95;;;;;;;;;;5054591;28;20101;-58
2023/05/04 04:16:01;;;;;;;8.02;7.20;;;;;;;;;;5055281;28;20080;-58
2023/05/04 04:18:27;;;;;;;10.25;8.48;;;;;;;;;;5054370;28;20032;-58
2023/05/04 04:20:53;;;;;;;8.70;7.63;;;;;;;;;;5054413;28;20040;-58
2023/05/04 04:23:19;;;;;;;8.50;7.57;;;;;;;;;;5054545;28;20025;-57
2023/05/04 04:25:45;;;;;;;8.32;7.53;;;;;;;;;;5054527;28;20021;-58
2023/05/04 04:28:11;;;;;;;7.80;7.07;;;;;;;;;;5054692;28;20025;-58
2023/05/04 04:30:37;;;;;;;10.30;7.90;;;;;;;;;;5054572;28;20055;-58
2023/05/04 04:33:03;;;;;;;8.82;7.72;;;;;;;;;;5054127;28;20441;-58
2023/05/04 04:35:31;;;;;;;8.50;7.70;;;;;;;;;;5054052;28;20036;-58
2023/05/04 04:37:57;;;;;;;7.75;6.75;;;;;;;;;;5054132;28;20075;-58
2023/05/04 04:40:23;;;;;;;8.80;7.78;;;;;;;;;;5054019;28;20029;-58
2023/05/04 04:42:51;;;;;;;7.93;7.07;;;;;;;;;;5054005;28;20025;-58
2023/05/04 04:45:16;;;;;;;8.68;7.88;;;;;;;;;;5053936;28;20044;-58
2023/05/04 04:47:43;;;;;;;10.13;8.25;;;;;;;;;;5054028;28;20029;-58
2023/05/04 04:50:10;;;;;;;10.38;7.85;;;;;;;;;;5054422;28;20021;-58
2023/05/04 04:52:36;;;;;;;8.52;7.72;;;;;;;;;;5053631;28;20025;-58
2023/05/04 04:55:03;;;;;;;9.52;7.85;;;;;;;;;;5053622;28;20033;-58
2023/05/04 04:57:29;;;;;;;7.53;6.80;;;;;;;;;;5054123;28;20044;-58
2023/05/04 04:59:55;;;;;;;11.73;7.72;;;;;;;;;;5053809;28;20029;-58
2023/05/04 05:02:21;;;;;;;8.20;7.40;;;;;;;;;;5053679;28;20355;-58
2023/05/04 05:04:48;;;;;;;8.80;7.60;;;;;;;;;;5053360;28;20467;-58
2023/05/04 05:07:14;;;;;;;8.50;7.32;;;;;;;;;;5053901;28;20039;-58
2023/05/04 05:09:41;;;;;;;8.68;6.55;;;;;;;;;;5053094;28;20059;-58
2023/05/04 05:12:07;;;;;;;9.80;7.82;;;;;;;;;;5053316;28;20045;-58
2023/05/04 05:14:33;;;;;;;8.77;7.88;;;;;;;;;;5053135;28;20095;-58
2023/05/04 05:17:02;;;;;;;8.35;6.90;;;;;;;;;;5053026;28;20467;-58
2023/05/04 05:19:28;;;;;;;8.10;7.32;;;;;;;;;;5053248;28;20029;-58
2023/05/04 05:21:55;;;;;;;8.93;7.82;;;;;;;;;;5053299;28;20037;-58
2023/05/04 05:24:21;;;;;;;8.48;7.68;;;;;;;;;;5053983;28;20037;-58
2023/05/04 05:26:47;;;;;;;8.32;7.53;;;;;;;;;;5053692;28;20025;-58
2023/05/04 05:29:13;;;;;;;7.53;6.78;;;;;;;;;;5052593;28;20029;-58
2023/05/04 05:31:40;;;;;;;7.72;7.03;;;;;;;;;;5053736;28;20029;-58
2023/05/04 05:34:06;;;;;;;7.50;6.80;;;;;;;;;;5053676;28;20029;-58
2023/05/04 05:36:32;;;;;;;7.65;6.85;;;;;;;;;;5054168;28;20028;-58
2023/05/04 05:38:58;;;;;;;8.15;6.55;;;;;;;;;;5059586;28;20029;-58
2023/05/04 05:41:24;;;;;;;8.70;7.80;;;;;;;;;;5059463;28;20082;-58
2023/05/04 05:43:50;;;;;;;7.82;7.10;;;;;;;;;;5060175;28;20025;-58
2023/05/04 05:46:17;;;;;;;11.68;8.13;;;;;;;;;;5060467;28;20032;-58
2023/05/04 05:48:43;;;;;;;9.50;7.20;;;;;;;;;;5060046;28;20099;-58
2023/05/04 05:51:09;;;;;;;7.70;6.90;;;;;;;;;;5060308;28;20069;-58
2023/05/04 05:53:35;;;;;;;7.85;7.05;;;;;;;;;;5060877;28;20013;-58
2023/05/04 05:56:01;;;;;;;7.80;7.00;;;;;;;;;;5060896;28;20048;-58
2023/05/04 05:58:27;;;;;;;8.65;6.57;;;;;;;;;;5060586;28;20013;-58
2023/05/04 06:00:53;;;;;;;7.55;6.82;;;;;;;;;;5060661;28;20447;-58
2023/05/04 06:03:19;;;;;;;7.45;6.63;;;;;;;;;;5060082;28;20147;-58
2023/05/04 06:05:45;;;;;;;8.10;7.30;;;;;;;;;;5059422;28;20021;-59
2023/05/04 06:08:11;;;;;;;8.38;7.55;;;;;;;;;;5060099;28;20348;-58
2023/05/04 06:10:37;;;;;;;8.07;7.28;;;;;;;;;;5060279;28;20053;-58
2023/05/04 06:13:03;;;;;;;7.97;7.18;;;;;;;;;;5060280;28;20079;-58
2023/05/04 06:15:29;;;;;;;9.00;8.07;;;;;;;;;;5059773;28;20056;-58
2023/05/04 06:17:55;;;;;;;8.38;7.15;;;;;;;;;;5059623;28;20372;-58
2023/05/04 06:20:21;;;;;;;8.23;7.43;;;;;;;;;;5060447;28;20116;-58
2023/05/04 06:22:47;;;;;;;9.82;8.10;;;;;;;;;;5060693;28;20025;-58
2023/05/04 06:25:13;;;;;;;10.35;7.93;;;;;;;;;;5059998;28;20052;-58
2023/05/04 06:27:39;;;;;;;9.27;8.38;;;;;;;;;;5060398;28;20021;-58
2023/05/04 06:30:06;;;;;;;9.30;8.27;;;;;;;;;;5060408;28;20478;-58
2023/05/04 06:32:32;;;;;;;10.60;7.53;;;;;;;;;;5060097;28;20088;-58
2023/05/04 06:34:58;;;;;;;8.45;7.68;;;;;;;;;;5060315;28;20021;-58
2023/05/04 06:37:25;;;;;;;8.65;7.75;;;;;;;;;;5059910;28;20064;-58
2023/05/04 06:39:51;;;;;;;8.95;7.20;;;;;;;;;;5059989;28;20360;-58
2023/05/04 06:42:17;;;;;;;8.10;7.30;;;;;;;;;;5059648;28;20418;-58
2023/05/04 06:44:43;;;;;;;9.32;7.80;;;;;;;;;;5059764;28;20242;-58
2023/05/04 06:47:09;;;;;;;20.73;8.05;;;;;;;;;;5059809;28;20382;-58
2023/05/04 06:49:35;;;;;;;7.93;7.13;;;;;;;;;;5056023;28;20108;-58
2023/05/04 06:52:01;;;;;;;8.50;7.60;;;;;;;;;;5056937;28;20363;-58
2023/05/04 06:54:27;;;;;;;8.98;7.80;;;;;;;;;;5057211;28;20048;-58
2023/05/04 06:56:53;;;;;;;7.60;6.78;;;;;;;;;;5057271;28;20033;-58
2023/05/04 06:59:20;;;;;;;7.82;6.65;;;;;;;;;;5056641;28;20103;-58
2023/05/04 07:01:46;;;;;;;8.52;7.38;;;;;;;;;;5056344;28;20033;-58
2023/05/04 07:04:15;;;;;;;6.95;6.28;;;;;;;;;;5056412;28;20054;-58
2023/05/04 07:06:42;;;;;;;8.93;6.97;;;;;;;;;;5056694;28;20415;-58
2023/05/04 07:09:08;;;;;;;8.32;7.20;;;;;;;;;;5056186;28;20074;-58
2023/05/04 07:11:34;;;;;;;7.85;7.05;;;;;;;;;;5056376;28;20040;-58
2023/05/04 07:14:00;;;;;;;8.05;7.28;;;;;;;;;;5055638;28;20049;-58
2023/05/04 07:16:26;;;;;;;7.72;6.93;;;;;;;;;;5056043;28;20564;-58
2023/05/04 07:18:51;;;;;;;7.72;6.93;;;;;;;;;;5055960;28;20348;-58
2023/05/04 07:21:17;;;;;;;7.60;6.80;;;;;;;;;;5056062;28;20025;-58
2023/05/04 07:23:43;;;;;;;9.23;7.78;;;;;;;;;;5056504;28;20032;-58
2023/05/04 07:26:09;;;;;;;7.97;6.55;;;;;;;;;;5056590;28;20029;-59
2023/05/04 07:28:35;;;;;;;6.95;6.05;;;;;;;;;;5055770;28;20053;-59
2023/05/04 07:31:02;;;;;;;6.70;6.00;;;;;;;;;;5055792;28;20057;-58
2023/05/04 07:33:28;;;;;;;7.97;7.00;;;;;;;;;;5056266;28;20021;-58
2023/05/04 07:35:57;;;;;;;9.55;7.65;;;;;;;;;;5056556;28;20028;-59
2023/05/04 07:38:24;;;;;;;6.80;6.10;;;;;;;;;;5056206;28;20031;-59
2023/05/04 07:40:50;;;;;;;8.50;7.00;;;;;;;;;;5056393;28;20037;-59
2023/05/04 07:43:16;;;;;;;8.35;7.13;;;;;;;;;;5055216;28;20024;-58
2023/05/04 07:45:42;;;;;;;6.80;6.07;;;;;;;;;;5055667;28;20060;-60
2023/05/04 07:48:08;;;;;;;13.43;6.82;;;;;;;;;;5055399;28;20029;-59
2023/05/04 07:50:34;;;;;;;7.88;6.55;;;;;;;;;;5055352;28;20029;-59
2023/05/04 07:53:01;;;;;;;9.43;6.35;;;;;;;;;;5055600;28;20028;-59
2023/05/04 07:55:28;;;;;;;7.07;6.35;;;;;;;;;;5055316;28;20028;-59
2023/05/04 07:57:54;;;;;;;7.72;6.45;;;;;;;;;;5055312;28;20590;-59
2023/05/04 08:00:20;;;;;;;8.77;7.22;;;;;;;;;;5055254;28;20100;-59
2023/05/04 08:02:46;;;;;;;8.55;7.40;;;;;;;;;;5055552;28;20025;-59
2023/05/04 08:05:12;;;;;;;7.47;5.78;;;;;;;;;;5055482;28;20028;-57
2023/05/04 08:07:38;;;;;;;6.40;5.75;;;;;;;;;;5055425;28;20021;-57
2023/05/04 08:10:04;;;;;;;5.63;5.00;;;;;;;;;;5055067;28;20478;-58
2023/05/04 08:12:30;;;;;;;5.80;5.28;;;;;;;;;;5054887;28;20040;-57
2023/05/04 08:14:56;;;;;;;5.82;5.22;;;;;;;;;;5054630;28;20053;-58
2023/05/04 08:17:22;;;;;;;6.85;5.43;;;;;;;;;;5054983;28;20025;-57
2023/05/04 08:19:48;;;;;;;5.82;4.90;;;;;;;;;;5054899;28;20029;-57
2023/05/04 08:22:14;;;;;;;6.32;5.07;;;;;;;;;;5055147;28;20029;-57
2023/05/04 08:24:40;;;;;;;5.60;5.00;;;;;;;;;;5054479;28;20086;-58
2023/05/04 08:27:06;;;;;;;5.53;4.55;;;;;;;;;;5055220;28;20459;-58
2023/05/04 08:29:32;;;;;;;6.10;4.95;;;;;;;;;;5054447;28;20036;-57
2023/05/04 08:31:58;;;;;;;6.15;4.80;;;;;;;;;;5054485;28;20032;-58
2023/05/04 08:34:24;;;;;;;6.45;5.22;;;;;;;;;;5054505;28;20075;-58
2023/05/04 08:36:51;;;;;;;6.45;5.45;;;;;;;;;;5055243;28;20033;-58
2023/05/04 08:39:18;;;;;;;5.75;4.60;;;;;;;;;;5055069;28;20017;-58
2023/05/04 08:41:44;;;;;;;5.15;4.35;;;;;;;;;;5054992;28;20059;-57
2023/05/04 08:44:10;;;;;;;6.20;5.22;;;;;;;;;;5054405;28;20467;-58
2023/05/04 08:46:39;;;;;;;5.55;4.43;;;;;;;;;;5054743;28;20383;-58
2023/05/04 08:49:06;;;;;;;4.93;4.43;;;;;;;;;;5054480;28;20418;-58
2023/05/04 08:51:36;;;;;;;5.97;5.05;;;;;;;;;;5054266;28;20040;-58
2023/05/04 08:54:03;;;;;;;5.95;5.28;;;;;;;;;;5054309;28;20032;-58
2023/05/04 08:56:29;;;;;;;6.20;4.90;;;;;;;;;;5053941;28;20115;-58
2023/05/04 08:59:00;;;;;;;4.60;3.70;;;;;;;;;;5053895;28;20477;-58
2023/05/04 09:01:26;;;;;;;5.88;5.18;;;;;;;;;;5054129;28;20040;-59
2023/05/04 09:03:52;;;;;;;4.80;4.20;;;;;;;;;;5054150;28;20029;-58
2023/05/04 09:06:18;;;;;;;6.10;4.50;;;;;;;;;;5054391;28;20079;-58
2023/05/04 09:08:45;;;;;;;5.82;5.18;;;;;;;;;;5053966;28;20021;-58
2023/05/04 09:11:11;;;;;;;6.30;4.68;;;;;;;;;;5054172;28;20061;-59
2023/05/04 09:13:37;;;;;;;6.35;4.35;;;;;;;;;;5053857;28;20485;-59
2023/05/04 09:16:03;;;;;;;4.78;3.85;;;;;;;;;;5054394;28;20083;-59
2023/05/04 09:18:36;;;;;;;5.28;4.63;;;;;;;;;;5054139;28;20032;-58
2023/05/04 09:21:02;;;;;;;4.93;4.30;;;;;;;;;;5053798;28;20033;-59
2023/05/04 09:23:28;;;;;;;5.18;4.45;;;;;;;;;;5053790;28;20063;-59
2023/05/04 09:25:54;;;;;;;5.10;4.53;;;;;;;;;;5054384;28;20063;-59
2023/05/04 09:28:21;;;;;;;5.93;4.60;;;;;;;;;;5053724;28;20414;-59
2023/05/04 09:30:47;;;;;;;7.40;4.85;;;;;;;;;;5054206;28;20036;-59
2023/05/04 09:33:15;;;;;;;8.60;4.75;;;;;;;;;;5053593;28;20458;-59
2023/05/04 09:35:43;;;;;;;7.10;3.97;;;;;;;;;;5053432;28;20021;-59
2023/05/04 09:38:09;;;;;;;4.63;3.42;;;;;;;;;;5053836;28;20021;-58
2023/05/04 09:40:35;;;;;;;4.38;3.72;;;;;;;;;;5053081;28;20027;-58
2023/05/04 09:43:01;;;;;;;4.63;3.90;;;;;;;;;;5053084;28;20021;-58
2023/05/04 09:45:37;;;;;;;4.97;3.42;;;;;;;;;;5053550;28;20028;-58
2023/05/04 09:48:15;;;;;;;5.30;3.70;;;;;;;;;;5052160;28;20086;-59
2023/05/04 09:50:46;;;;;;;4.28;3.50;;;;;;;;;;5052904;28;20502;-59
2023/05/04 09:53:13;;;;;;;3.00;2.63;;;;;;;;;;5053282;28;20109;-58
2023/05/04 09:55:42;;;;;;;4.15;2.95;;;;;;;;;;5053189;28;20120;-58
2023/05/04 09:58:08;;;;;;;3.83;3.30;;;;;;;;;;5052943;28;20024;-58
2023/05/04 10:00:34;;;;;;;3.60;2.67;;;;;;;;;;5053210;28;20025;-58
2023/05/04 10:03:03;;;;;;;3.47;3.00;;;;;;;;;;5052972;28;20025;-58
2023/05/04 10:05:29;;;;;;;3.97;2.85;;;;;;;;;;5053302;28;20026;-58
2023/05/04 10:07:58;;;;;;;3.55;2.75;;;;;;;;;;5053521;28;20024;-58
2023/05/04 10:10:25;;;;;;;3.38;2.53;;;;;;;;;;5053011;28;20463;-58
2023/05/04 10:12:51;;;;;;;4.95;3.58;;;;;;;;;;5053798;28;20079;-58
2023/05/04 10:15:20;;;;;;;4.13;3.20;;;;;;;;;;5053065;28;20483;-58
2023/05/04 10:18:04;;;;;;;4.82;3.47;;;;;;;;;;5054133;28;20021;-58
2023/05/04 10:20:45;;;;;;;4.55;2.88;;;;;;;;;;5053236;28;20025;-58
2023/05/04 10:23:30;;;;;;;6.85;3.00;;;;;;;;;;5054037;28;20025;-59
2023/05/04 10:26:08;;;;;;;4.03;2.90;;;;;;;;;;5057860;28;20025;-58
2023/05/04 10:28:40;;;;;;;3.75;2.90;;;;;;;;;;5057317;28;20148;-58
2023/05/04 10:31:06;;;;;;;3.95;3.25;;;;;;;;;;5057211;28;20417;-59
2023/05/04 10:33:39;;;;;;;3.90;3.20;;;;;;;;;;5057274;28;20029;-58
2023/05/04 10:36:05;;;;;;;4.03;3.60;;;;;;;;;;5057206;28;20025;-59
2023/05/04 10:38:35;;;;;;;4.15;3.20;;;;;;;;;;5056529;28;20021;-59
2023/05/04 10:41:01;;;;;;;3.47;2.83;;;;;;;;;;5056796;28;20029;-58
2023/05/04 10:43:31;;;;;;;4.50;2.58;;;;;;;;;;5057302;28;20115;-59
2023/05/04 10:45:57;;;;;;;5.38;3.30;;;;;;;;;;5057345;28;20036;-59
2023/05/04 10:48:33;;;;;;;4.38;3.13;;;;;;;;;;5057157;28;20029;-58
2023/05/04 10:50:59;;;;;;;5.60;3.38;;;;;;;;;;5057102;28;20037;-59
2023/05/04 10:53:31;;;;;;;4.32;3.63;;;;;;;;;;5057110;28;20107;-59
2023/05/04 10:55:57;;;;;;;4.25;2.97;;;;;;;;;;5056568;28;20455;-59
2023/05/04 10:58:29;;;;;;;4.65;3.30;;;;;;;;;;5056726;28;20056;-59
2023/05/04 11:00:55;;;;;;;3.58;3.03;;;;;;;;;;5056713;28;20109;-59
2023/05/04 11:03:23;;;;;;;3.20;2.78;;;;;;;;;;5056693;28;20025;-58
2023/05/04 11:05:51;;;;;;;3.70;3.00;;;;;;;;;;5056087;28;20485;-59
2023/05/04 11:08:17;;;;;;;3.78;2.85;;;;;;;;;;5055988;28;20032;-59
2023/05/04 11:10:43;;;;;;;3.92;2.72;;;;;;;;;;5055749;28;20111;-59
2023/05/04 11:13:12;;;;;;;3.72;3.28;;;;;;;;;;5055844;28;20548;-59
2023/05/04 11:15:48;;;;;;;3.97;2.78;;;;;;;;;;5056259;28;20084;-59
2023/05/04 11:18:14;;;;;;;5.22;3.70;;;;;;;;;;5056386;28;20115;-59
2023/05/04 11:20:41;;;;;;;4.20;3.10;;;;;;;;;;5056576;28;20112;-59
2023/05/04 11:23:09;;;;;;;3.17;2.55;;;;;;;;;;5056017;28;20025;-58
2023/05/04 11:25:36;;;;;;;4.28;3.33;;;;;;;;;;5056577;28;20494;-59
2023/05/04 11:28:02;;;;;;;3.83;2.90;;;;;;;;;;5055919;28;20021;-59
2023/05/04 11:30:32;;;;;;;3.30;2.83;;;;;;;;;;5056374;28;20017;-59
2023/05/04 11:32:59;;;;;;;4.70;3.47;;;;;;;;;;5055624;28;20102;-59
2023/05/04 11:35:25;;;;;;;4.50;3.00;;;;;;;;;;5055662;28;20025;-59
2023/05/04 11:37:51;;;;;;;5.50;3.55;;;;;;;;;;5056371;28;20033;-59
2023/05/04 11:40:26;;;;;;;4.35;3.50;;;;;;;;;;5056368;28;20032;-59
2023/05/04 11:42:53;;;;;;;6.95;2.88;;;;;;;;;;5055215;28;20501;-59
2023/05/04 11:45:23;;;;;;;4.43;2.75;;;;;;;;;;5056137;28;20029;-59
2023/05/04 11:47:50;;;;;;;5.50;3.05;;;;;;;;;;5055929;28;20021;-59
2023/05/04 11:50:17;;;;;;;3.63;2.92;;;;;;;;;;5055449;28;20029;-59
2023/05/04 11:52:43;;;;;;;4.38;3.45;;;;;;;;;;5055392;28;20045;-59
2023/05/04 11:55:24;;;;;;;3.78;3.13;;;;;;;;;;5055636;28;20471;-59
2023/05/04 11:57:57;;;;;;;3.58;2.85;;;;;;;;;;5055355;28;20032;-59
2023/05/04 12:00:33;;;;;;;5.20;3.90;;;;;;;;;;5055177;28;20083;-59
2023/05/04 12:02:59;;;;;;;4.10;3.30;;;;;;;;;;5055580;28;20032;-59
2023/05/04 12:05:25;;;;;;;4.47;2.72;;;;;;;;;;5055334;28;20036;-59
2023/05/04 12:07:51;;;;;;;3.72;2.78;;;;;;;;;;5055481;28;20028;-59
2023/05/04 12:10:24;;;;;;;4.65;3.30;;;;;;;;;;5053576;28;20443;-59
2023/05/04 12:12:50;;;;;;;6.25;3.20;;;;;;;;;;5054804;28;20483;-59
2023/05/04 12:15:26;;;;;;;5.10;3.97;;;;;;;;;;5055165;28;20053;-59
2023/05/04 12:17:52;;;;;;;3.60;2.88;;;;;;;;;;5055576;28;20036;-59
2023/05/04 12:20:23;;;;;;;3.92;3.40;;;;;;;;;;5055203;28;20029;-59
2023/05/04 12:22:49;;;;;;;4.35;3.40;;;;;;;;;;5054803;28;20070;-59
2023/05/04 12:25:18;;;;;;;4.43;3.88;;;;;;;;;;5054700;28;20029;-59
2023/05/04 12:27:43;;;;;;;3.70;3.30;;;;;;;;;;5055084;28;20363;-59
2023/05/04 12:30:10;;;;;;;4.22;3.38;;;;;;;;;;5054653;28;20021;-59
2023/05/04 12:32:36;;;;;;;4.43;3.47;;;;;;;;;;5054239;28;20466;-59
2023/05/04 12:35:03;;;;;;;5.95;4.13;;;;;;;;;;5054405;28;20075;-59
2023/05/04 12:37:29;;;;;;;4.80;3.53;;;;;;;;;;5055012;28;20425;-59
2023/05/04 12:39:55;;;;;;;7.15;3.83;;;;;;;;;;5054262;28;20021;-59
2023/05/04 12:42:21;;;;;;;4.45;3.42;;;;;;;;;;5054221;28;20031;-59
2023/05/04 12:44:47;;;;;;;4.10;3.60;;;;;;;;;;5054283;28;20021;-59
2023/05/04 12:47:14;;;;;;;6.70;3.78;;;;;;;;;;5053216;28;20025;-59
2023/05/04 12:49:40;;;;;;;5.93;4.22;;;;;;;;;;5054336;28;20025;-59
2023/05/04 12:52:06;;;;;;;4.47;4.07;;;;;;;;;;5054322;28;20056;-59
2023/05/04 12:54:32;;;;;;;5.05;3.90;;;;;;;;;;5053805;28;20475;-59
2023/05/04 12:56:58;;;;;;;5.82;4.13;;;;;;;;;;5054257;28;20055;-59
2023/05/04 12:59:25;;;;;;;4.78;3.45;;;;;;;;;;5053955;28;20025;-59
2023/05/04 13:01:51;;;;;;;4.97;3.72;;;;;;;;;;5053852;28;20056;-59
2023/05/04 13:04:17;;;;;;;4.22;3.35;;;;;;;;;;5054536;28;20067;-60
2023/05/04 13:06:43;;;;;;;4.38;3.97;;;;;;;;;;5054195;28;20079;-59
2023/05/04 13:09:09;;;;;;;4.97;3.75;;;;;;;;;;5054188;28;20029;-59
2023/05/04 13:11:35;;;;;;;5.20;3.90;;;;;;;;;;5053717;28;20036;-59
2023/05/04 13:14:01;;;;;;;5.50;3.53;;;;;;;;;;5053540;28;20045;-59
2023/05/04 13:16:29;;;;;;;5.18;3.88;;;;;;;;;;5053978;28;20049;-59
2023/05/04 13:18:55;;;;;;;4.82;3.65;;;;;;;;;;5053388;28;20428;-59
2023/05/04 13:21:21;;;;;;;4.75;3.80;;;;;;;;;;5053961;28;20063;-59
2023/05/04 13:23:47;;;;;;;5.28;3.80;;;;;;;;;;5054288;28;20364;-59
2023/05/04 13:26:13;;;;;;;6.22;4.10;;;;;;;;;;5053774;28;20086;-59
2023/05/04 13:28:39;;;;;;;5.78;4.45;;;;;;;;;;5054206;28;20067;-59
2023/05/04 13:31:05;;;;;;;5.47;4.30;;;;;;;;;;5053526;28;20036;-59
2023/05/04 13:33:31;;;;;;;5.15;4.05;;;;;;;;;;5053611;28;20028;-59
2023/05/04 13:36:01;;;;;;;4.28;3.88;;;;;;;;;;5054089;28;20021;-59
2023/05/04 13:38:27;;;;;;;4.10;3.55;;;;;;;;;;5053672;28;20032;-59
2023/05/04 13:40:54;;;;;;;5.45;3.55;;;;;;;;;;5053617;28;20025;-59
2023/05/04 13:43:20;;;;;;;5.05;4.03;;;;;;;;;;5054018;28;20363;-59
2023/05/04 13:45:47;;;;;;;5.10;4.07;;;;;;;;;;5053452;28;20022;-59
2023/05/04 13:48:13;;;;;;;5.15;4.38;;;;;;;;;;5053269;28;20033;-59
2023/05/04 13:50:39;;;;;;;4.82;3.38;;;;;;;;;;5053041;28;20021;-59
2023/05/04 13:53:05;;;;;;;5.25;4.40;;;;;;;;;;5053101;28;20025;-59
2023/05/04 13:55:32;;;;;;;6.32;4.25;;;;;;;;;;5053726;28;20425;-60
2023/05/04 13:57:58;;;;;;;4.10;3.70;;;;;;;;;;5053869;28;20094;-60
2023/05/04 14:00:24;;;;;;;17.73;4.93;;;;;;;;;;5057377;28;20025;-60
2023/05/04 14:02:50;;;;;;;7.88;4.75;;;;;;;;;;5057981;28;20021;-59
2023/05/04 14:05:16;;;;;;;5.40;4.03;;;;;;;;;;5057022;28;20532;-59
2023/05/04 14:07:42;;;;;;;5.65;4.40;;;;;;;;;;5057987;28;20032;-60
2023/05/04 14:10:08;;;;;;;4.45;3.30;;;;;;;;;;5057382;28;20021;-59
2023/05/04 14:12:34;;;;;;;4.72;3.80;;;;;;;;;;5057320;28;20029;-59
2023/05/04 14:15:00;;;;;;;5.20;4.20;;;;;;;;;;5057369;28;20356;-59
2023/05/04 14:17:26;;;;;;;5.28;4.45;;;;;;;;;;5057250;28;20033;-59
2023/05/04 14:19:52;;;;;;;5.85;4.18;;;;;;;;;;5057271;28;20025;-59
2023/05/04 14:22:18;;;;;;;5.85;4.43;;;;;;;;;;5057703;28;20031;-59
2023/05/04 14:24:44;;;;;;;5.57;4.32;;;;;;;;;;5057409;28;20067;-59
2023/05/04 14:27:10;;;;;;;5.05;3.85;;;;;;;;;;5057627;28;20025;-59
2023/05/04 14:29:36;;;;;;;6.05;3.83;;;;;;;;;;5057630;28;20464;-59
2023/05/04 14:32:02;;;;;;;3.67;3.15;;;;;;;;;;5056921;28;20112;-59
2023/05/04 14:34:28;;;;;;;4.70;4.13;;;;;;;;;;5057000;28;20119;-59
2023/05/04 14:36:54;;;;;;;4.97;3.45;;;;;;;;;;5057153;28;20090;-59
2023/05/04 14:39:21;;;;;;;6.60;4.05;;;;;;;;;;5056822;28;20021;-59
2023/05/04 14:41:47;;;;;;;6.90;3.65;;;;;;;;;;5057552;28;20040;-60